Thursday, October 19, 2017, 6:05 AM CDT
Back to Local

KOJC, Olathe Johnson Co Executive

Location: Olathe, KS, United States Lat: 38.833
Local Time: 6:05 AM CDT (11:05 GMT) Lon: -94.733
Time Zone: US/Central Elev: 1095 ft

Show me the last for .
Show Decoded

2017-10-19 05:53 METAR KOJC 191053Z AUTO 18004KT 10SM CLR 11/08 A3009 RMK AO2 SLP185 T01060083 =
2017-10-19 04:53 METAR KOJC 190953Z AUTO 19004KT 10SM CLR 11/09 A3008 RMK AO2 SLP181 T01110089 =
2017-10-19 03:53 METAR KOJC 190853Z AUTO 20004KT 10SM CLR 12/09 A3008 RMK AO2 SLP182 T01170089
                 51007 =
2017-10-19 02:53 METAR KOJC 190753Z AUTO 18005KT 10SM CLR 12/09 A3008 RMK AO2 SLP181 T01170089 =
2017-10-19 01:53 METAR KOJC 190653Z AUTO 18005KT 10SM CLR 12/09 A3007 RMK AO2 SLP178 T01220089 =
2017-10-19 00:53 METAR KOJC 190553Z AUTO 20005KT 10SM CLR 13/09 A3006 RMK AO2 SLP174 T01330094
                 10183 20128 402280089 50001 =
2017-10-18 23:53 METAR KOJC 190453Z AUTO 21004KT 10SM CLR 14/10 A3007 RMK AO2 SLP176 T01390100 =
2017-10-18 22:53 METAR KOJC 190353Z AUTO 19005KT 10SM CLR 13/10 A3006 RMK AO2 SLP176 T01330100 =
2017-10-18 21:53 METAR KOJC 190253Z AUTO 18004KT 10SM CLR 14/10 A3006 RMK AO2 SLP175 T01390100
                 53012 =
2017-10-18 20:53 METAR KOJC 190153Z 16005KT 10SM CLR 16/10 A3005 RMK AO2 SLP172 T01560100 =
2017-10-18 19:53 METAR KOJC 190053Z 16006KT 10SM CLR 16/10 A3003 RMK AO2 SLP166 T01610100 =
2017-10-18 18:53 METAR KOJC 182353Z 19006KT 10SM CLR 18/09 A3002 RMK AO2 SLP163 T01830094 10228
                 20183 51009 =
2017-10-18 17:53 METAR KOJC 182253Z 19009KT 10SM CLR 21/09 A3001 RMK AO2 SLP158 T02110094 =
2017-10-18 16:53 METAR KOJC 182153Z 20010G19KT 10SM CLR 23/09 A3001 RMK AO2 SLP155 T02280094 =
2017-10-18 15:53 METAR KOJC 182053Z 19013G20KT 10SM CLR 23/09 A2999 RMK AO2 SLP152 T02280094
                 56013 =
2017-10-18 14:53 METAR KOJC 181953Z 20012G19KT 10SM CLR 22/09 A3000 RMK AO2 SLP154 T02220089 =
2017-10-18 13:53 METAR KOJC 181853Z 19011G18KT 10SM CLR 22/08 A3002 RMK AO2 SLP160 T02170083 =
2017-10-18 12:53 METAR KOJC 181753Z 19016G20KT 10SM CLR 21/08 A3003 RMK AO2 SLP164 T02060078
                 10206 20089 58011 =
2017-10-18 11:53 METAR KOJC 181653Z 20014G23KT 10SM CLR 18/07 A3005 RMK AO2 SLP170 T01830067 =
2017-10-18 10:53 METAR KOJC 181553Z 19014G22KT 10SM CLR 17/08 A3006 RMK AO2 SLP176 T01670078 =
2017-10-18 09:53 METAR KOJC 181453Z 19012G22KT 10SM CLR 15/07 A3007 RMK AO2 SLP178 T01500067
                 58001 =
2017-10-18 08:53 METAR KOJC 181353Z 19010G18KT 10SM CLR 12/07 A3008 RMK AO2 SLP183 T01170067 =
2017-10-18 07:53 METAR KOJC 181253Z 18009KT 10SM CLR 10/06 A3007 RMK AO2 SLP181 T01000061 =
2017-10-18 06:53 METAR KOJC 181153Z 20007KT 180V250 10SM CLR 09/07 A3007 RMK AO2 SLP181 T00890067
                 10128 20089 56002 =

Support USWX by starting your Amazon purchase here.